createdAt,value
2019-06-01T00:00:29.006Z,69.87
2019-06-01T00:01:29.002Z,70.54
2019-06-01T00:02:29.000Z,69.58
2019-06-01T00:03:28.994Z,70.54
2019-06-01T00:04:28.989Z,71.21
2019-06-01T00:05:28.985Z,69.58
2019-06-01T00:06:28.978Z,69.77
2019-06-01T00:07:28.984Z,71.50
2019-06-01T00:08:28.970Z,70.54
2019-06-01T00:09:28.987Z,69.87
2019-06-01T00:10:28.957Z,69.96
2019-06-01T00:11:28.956Z,69.77
2019-06-01T00:12:28.950Z,69.10
2019-06-01T00:13:28.947Z,69.39
2019-06-01T00:14:28.932Z,69.87
2019-06-01T00:15:28.929Z,69.77
2019-06-01T00:16:28.953Z,69.39
2019-06-01T00:17:28.921Z,71.50
2019-06-01T00:18:28.913Z,68.24
2019-06-01T00:19:28.925Z,69.01
2019-06-01T00:20:28.911Z,70.83
2019-06-01T00:21:28.898Z,69.20
2019-06-01T00:22:28.917Z,69.26
2019-06-01T00:23:28.902Z,68.97
2019-06-01T00:24:28.886Z,69.07
2019-06-01T00:25:28.887Z,68.11
2019-06-01T00:26:28.879Z,67.82
2019-06-01T00:27:28.876Z,67.82
2019-06-01T00:28:28.856Z,67.91
2019-06-01T00:29:28.856Z,67.72
2019-06-01T00:30:28.856Z,67.72
2019-06-01T00:31:28.851Z,67.05
2019-06-01T00:32:28.845Z,67.72
2019-06-01T00:33:28.841Z,68.49
2019-06-01T00:34:28.831Z,73.76
2019-06-01T00:35:28.829Z,68.49
2019-06-01T00:36:28.826Z,69.74
2019-06-01T00:37:28.816Z,69.17
2019-06-01T00:38:28.810Z,66.86
2019-06-01T00:39:28.805Z,67.82
2019-06-01T00:40:28.806Z,67.15
2019-06-01T00:41:28.802Z,67.25
2019-06-01T00:42:28.797Z,67.82
2019-06-01T00:43:28.784Z,69.64
2019-06-01T00:44:28.776Z,67.15
2019-06-01T00:45:28.774Z,67.44
2019-06-01T00:46:28.770Z,68.78
2019-06-01T00:47:28.768Z,67.72
2019-06-01T00:48:28.759Z,68.49
2019-06-01T00:49:28.760Z,73.86
2019-06-01T00:50:28.753Z,69.74
2019-06-01T00:51:28.741Z,68.30
2019-06-01T00:52:28.738Z,67.34
2019-06-01T00:53:28.735Z,67.91
2019-06-01T00:54:28.721Z,66.77
2019-06-01T00:55:28.723Z,66.58
2019-06-01T00:56:28.712Z,65.91
2019-06-01T00:57:28.712Z,65.05
2019-06-01T00:58:28.703Z,64.34
2019-06-01T00:59:28.701Z,65.30
2019-06-01T01:00:42.874Z,65.30
2019-06-01T01:01:28.687Z,63.76
2019-06-01T01:02:28.696Z,63.67
2019-06-01T01:03:28.677Z,64.72
2019-06-01T01:04:28.692Z,65.58
2019-06-01T01:05:28.723Z,66.16
2019-06-01T01:06:28.662Z,65.39
2019-06-01T01:07:28.657Z,69.03
2019-06-01T01:08:28.652Z,67.69
2019-06-01T01:09:28.661Z,65.11
2019-06-01T01:10:28.636Z,68.46
2019-06-01T01:11:28.639Z,67.02
2019-06-01T01:12:28.631Z,66.83
2019-06-01T01:13:28.672Z,70.95
2019-06-01T01:14:28.616Z,67.79
2019-06-01T01:15:28.614Z,65.20
2019-06-01T01:16:28.606Z,64.82
2019-06-01T01:17:28.605Z,72.38
2019-06-01T01:18:28.593Z,68.07
2019-06-01T01:19:28.592Z,67.11
2019-06-01T01:20:28.585Z,64.63
2019-06-01T01:21:28.579Z,64.34
2019-06-01T01:22:28.568Z,63.48
2019-06-01T01:23:28.568Z,63.00
2019-06-01T01:24:28.560Z,63.86
2019-06-01T01:25:28.570Z,62.52
2019-06-01T01:26:28.551Z,62.81
2019-06-01T01:27:28.545Z,62.49
2019-06-01T01:28:28.548Z,63.48
2019-06-01T01:29:28.534Z,61.94
2019-06-01T01:30:28.523Z,61.82
2019-06-01T01:31:28.523Z,62.01
2019-06-01T01:32:28.515Z,67.76
2019-06-01T01:33:28.510Z,64.31
2019-06-01T01:34:28.510Z,63.45
2019-06-01T01:35:28.496Z,62.30
2019-06-01T01:36:28.497Z,65.55
2019-06-01T01:37:28.509Z,64.50
2019-06-01T01:38:28.481Z,63.64
2019-06-01T01:39:28.479Z,64.40
2019-06-01T01:40:28.470Z,66.61
2019-06-01T01:41:36.918Z,62.77
2019-06-01T01:43:21.969Z,62.49
2019-06-01T01:44:29.596Z,62.30
2019-06-01T01:46:23.081Z,62.77
2019-06-01T01:47:15.356Z,60.96
2019-06-01T01:49:08.841Z,62.30
2019-06-01T01:50:08.786Z,62.59
2019-06-01T01:53:50.590Z,63.54
2019-06-01T01:54:34.296Z,61.82
2019-06-01T02:01:20.714Z,59.49
2019-06-01T02:02:04.126Z,59.33
2019-06-01T02:03:58.982Z,60.64
2019-06-01T02:04:59.935Z,59.52
2019-06-01T02:05:57.467Z,58.54
2019-06-01T02:06:58.473Z,59.49
2019-06-01T02:07:57.471Z,58.25
2019-06-01T02:08:57.474Z,58.63
2019-06-01T02:09:57.453Z,57.01
2019-06-01T02:10:57.546Z,56.82
2019-06-01T02:11:57.712Z,57.10
2019-06-01T02:12:57.571Z,57.87
2019-06-01T02:13:57.858Z,56.82
2019-06-01T02:14:57.716Z,57.29
2019-06-01T02:15:58.265Z,57.58
2019-06-01T02:16:58.105Z,56.91
2019-06-01T02:17:58.179Z,56.82
2019-06-01T02:18:58.808Z,57.20
2019-06-01T02:19:58.154Z,56.24
2019-06-01T02:20:58.453Z,56.72
2019-06-01T02:21:58.321Z,56.24
2019-06-01T02:22:58.826Z,57.39
2019-06-01T02:23:57.395Z,56.91
2019-06-01T02:24:57.833Z,61.02
2019-06-01T02:25:57.358Z,58.15
2019-06-01T02:26:57.355Z,57.20
2019-06-01T02:27:57.416Z,57.87
2019-06-01T02:28:57.372Z,57.77
2019-06-01T02:29:57.330Z,57.68
2019-06-01T02:30:57.925Z,58.06
2019-06-01T02:31:58.688Z,55.76
2019-06-01T02:32:58.407Z,55.96
2019-06-01T02:33:58.744Z,55.29
2019-06-01T02:34:58.581Z,54.90
2019-06-01T02:35:58.025Z,55.76
2019-06-01T02:36:58.379Z,54.90
2019-06-01T02:37:58.564Z,54.43
2019-06-01T02:38:58.603Z,58.15
2019-06-01T02:39:58.425Z,55.26
2019-06-01T02:40:58.810Z,56.05
2019-06-01T02:41:59.025Z,55.76
2019-06-01T02:42:58.924Z,54.33
2019-06-01T02:43:57.783Z,54.61
2019-06-01T02:44:57.418Z,56.40
2019-06-01T02:45:58.136Z,56.24
2019-06-01T02:46:57.225Z,56.05
2019-06-01T02:47:57.566Z,54.90
2019-06-01T02:48:57.442Z,56.02
2019-06-01T02:49:57.667Z,56.53
2019-06-01T02:50:57.475Z,56.24
2019-06-01T02:51:57.229Z,56.02
2019-06-01T02:52:57.331Z,54.49
2019-06-01T02:53:57.664Z,56.24
2019-06-01T02:54:57.776Z,54.88
2019-06-01T02:55:57.866Z,54.21
2019-06-01T02:56:57.874Z,54.21
2019-06-01T02:57:58.053Z,53.06
2019-06-01T02:58:58.243Z,53.06
2019-06-01T02:59:58.363Z,53.25
2019-06-01T03:00:58.446Z,53.06
2019-06-01T03:02:03.418Z,53.92
2019-06-01T03:02:57.127Z,53.63
2019-06-01T03:03:57.586Z,52.67
2019-06-01T03:04:57.138Z,53.16
2019-06-01T03:05:57.435Z,53.63
2019-06-01T03:06:57.293Z,54.21
2019-06-01T03:07:57.287Z,54.21
2019-06-01T03:08:57.680Z,55.54
2019-06-01T03:09:57.085Z,54.02
2019-06-01T03:10:57.620Z,54.88
2019-06-01T03:11:58.938Z,53.06
2019-06-01T03:12:58.141Z,54.68
2019-06-01T03:13:58.220Z,53.25
2019-06-01T03:14:58.249Z,53.34
2019-06-01T03:15:58.165Z,53.06
2019-06-01T03:16:57.038Z,52.96
2019-06-01T03:17:57.035Z,52.87
2019-06-01T03:18:57.026Z,54.78
2019-06-01T03:19:57.024Z,52.77
2019-06-01T03:20:57.019Z,52.67
2019-06-01T03:21:57.007Z,52.87
2019-06-01T03:22:57.012Z,53.25
2019-06-01T03:23:57.012Z,58.98
2019-06-01T03:24:56.987Z,53.73
2019-06-01T03:25:56.982Z,52.20
2019-06-01T03:26:56.979Z,52.29
2019-06-01T03:27:57.069Z,52.96
2019-06-01T03:28:56.965Z,53.53
2019-06-01T03:29:56.960Z,52.29
2019-06-01T03:30:56.951Z,52.87
2019-06-01T03:32:17.630Z,53.82
2019-06-01T03:32:56.943Z,53.16
2019-06-01T03:33:56.970Z,52.58
2019-06-01T03:34:56.940Z,52.20
2019-06-01T03:35:56.945Z,52.29
2019-06-01T03:36:56.916Z,53.16
2019-06-01T03:37:56.909Z,52.39
2019-06-01T03:38:56.903Z,52.58
2019-06-01T03:39:56.898Z,51.91
2019-06-01T03:40:56.891Z,53.63
2019-06-01T03:41:56.897Z,55.45
2019-06-01T03:42:56.925Z,52.96
2019-06-01T03:43:56.873Z,52.01
2019-06-01T03:44:56.874Z,52.96
2019-06-01T03:45:56.851Z,53.63
2019-06-01T03:46:56.852Z,53.25
2019-06-01T03:47:56.848Z,53.06
2019-06-01T03:48:56.839Z,52.77
2019-06-01T03:49:56.841Z,52.96
2019-06-01T03:50:56.826Z,52.96
2019-06-01T03:51:56.819Z,53.16
2019-06-01T03:52:56.812Z,52.87
2019-06-01T03:53:56.807Z,54.02
2019-06-01T03:54:56.801Z,55.35
2019-06-01T03:55:56.804Z,53.34
2019-06-01T03:56:56.788Z,53.63
2019-06-01T03:57:56.787Z,53.16
2019-06-01T03:58:56.776Z,54.30
2019-06-01T03:59:56.774Z,53.16
2019-06-01T04:00:56.772Z,53.44
2019-06-01T04:01:56.759Z,53.25
2019-06-01T04:02:56.757Z,53.44
2019-06-01T04:03:56.745Z,57.20
2019-06-01T04:04:56.739Z,54.23
2019-06-01T04:05:56.730Z,57.17
2019-06-01T04:06:56.725Z,56.91
2019-06-01T04:07:56.724Z,56.15
2019-06-01T04:08:56.715Z,55.16
2019-06-01T04:09:56.711Z,55.29
2019-06-01T04:10:56.705Z,54.33
2019-06-01T04:11:56.697Z,54.61
2019-06-01T04:12:56.688Z,55.93
2019-06-01T04:13:56.685Z,55.29
2019-06-01T04:14:56.678Z,55.29
2019-06-01T04:15:56.673Z,54.04
2019-06-01T04:16:56.666Z,54.90
2019-06-01T04:17:56.661Z,57.01
2019-06-01T04:18:56.649Z,56.62
2019-06-01T04:19:56.648Z,55.38
2019-06-01T04:20:56.644Z,55.19
2019-06-01T04:21:56.657Z,55.86
2019-06-01T04:22:56.629Z,55.38
2019-06-01T04:23:56.622Z,55.67
2019-06-01T04:24:56.641Z,55.86
2019-06-01T04:25:56.611Z,56.15
2019-06-01T04:26:56.598Z,55.96
2019-06-01T04:27:56.598Z,56.05
2019-06-01T04:28:56.589Z,55.38
2019-06-01T04:29:56.587Z,56.43
2019-06-01T04:30:56.583Z,57.48
2019-06-01T04:31:56.575Z,55.29
2019-06-01T04:32:56.567Z,55.57
2019-06-01T04:33:56.561Z,57.97
2019-06-01T04:34:56.556Z,56.15
2019-06-01T04:35:56.547Z,55.57
2019-06-01T04:36:56.544Z,55.47
2019-06-01T04:37:56.539Z,55.96
2019-06-01T04:38:56.531Z,60.74
2019-06-01T04:39:56.526Z,57.68
2019-06-01T04:40:56.522Z,56.82
2019-06-01T04:41:56.512Z,57.68
2019-06-01T04:42:56.525Z,63.60
2019-06-01T04:43:56.504Z,60.58
2019-06-01T04:44:56.500Z,61.51
2019-06-01T04:45:56.493Z,59.62
2019-06-01T04:46:56.484Z,59.33
2019-06-01T04:47:56.478Z,60.96
2019-06-01T04:48:56.471Z,60.58
2019-06-01T04:49:56.462Z,60.67
2019-06-01T04:50:56.458Z,60.77
2019-06-01T04:51:56.469Z,60.10
2019-06-01T04:52:56.450Z,61.63
2019-06-01T04:53:56.447Z,63.06
2019-06-01T04:54:56.439Z,61.91
2019-06-01T04:55:56.433Z,65.55
2019-06-01T04:56:56.429Z,65.30
2019-06-01T04:57:56.422Z,62.90
2019-06-01T04:58:56.412Z,65.58
2019-06-01T04:59:56.412Z,63.86
2019-06-01T05:00:56.399Z,64.05
2019-06-01T05:01:56.413Z,64.82
2019-06-01T05:03:04.963Z,63.48
2019-06-01T05:03:56.397Z,63.57
2019-06-01T05:04:56.383Z,64.34
2019-06-01T05:05:56.381Z,63.67
2019-06-01T05:06:56.371Z,63.39
2019-06-01T05:07:56.366Z,64.25
2019-06-01T05:08:56.364Z,63.86
2019-06-01T05:09:56.354Z,63.76
2019-06-01T05:10:56.352Z,66.45
2019-06-01T05:11:56.351Z,66.83
2019-06-01T05:12:56.342Z,67.02
2019-06-01T05:13:56.332Z,65.30
2019-06-01T05:14:56.331Z,64.63
2019-06-01T05:15:56.323Z,67.44
2019-06-01T05:16:56.322Z,67.05
2019-06-01T05:17:56.348Z,67.44
2019-06-01T05:18:56.326Z,68.78
2019-06-01T05:19:56.314Z,68.01
2019-06-01T05:20:56.294Z,67.91
2019-06-01T05:21:56.302Z,69.48
2019-06-01T05:22:56.285Z,69.20
2019-06-01T05:23:56.298Z,69.29
2019-06-01T05:24:56.279Z,69.20
2019-06-01T05:25:56.274Z,69.96
2019-06-01T05:26:56.262Z,70.73
2019-06-01T05:27:56.266Z,71.98
2019-06-01T05:28:56.251Z,71.98
2019-06-01T05:29:56.251Z,71.78
2019-06-01T05:30:56.242Z,72.59
2019-06-01T05:31:56.243Z,73.07
2019-06-01T05:32:56.235Z,73.93
2019-06-01T05:33:56.230Z,74.98
2019-06-01T05:34:56.225Z,74.02
2019-06-01T05:35:56.222Z,74.16
2019-06-01T05:36:56.223Z,74.93
2019-06-01T05:37:56.216Z,75.02
2019-06-01T05:38:56.218Z,75.50
2019-06-01T05:39:56.208Z,76.75
2019-06-01T05:40:56.207Z,76.31
2019-06-01T05:41:56.199Z,76.21
2019-06-01T05:42:56.199Z,77.08
2019-06-01T05:43:56.218Z,77.94
2019-06-01T05:44:56.199Z,77.65
2019-06-01T05:45:56.196Z,78.61
2019-06-01T05:46:56.187Z,78.17
2019-06-01T05:47:56.183Z,79.22
2019-06-01T05:48:56.184Z,78.36
2019-06-01T05:49:56.177Z,78.55
2019-06-01T05:50:56.184Z,78.27
2019-06-01T05:51:56.187Z,78.08
2019-06-01T05:52:56.169Z,79.13
2019-06-01T05:53:56.167Z,78.84
2019-06-01T05:54:56.164Z,79.13
2019-06-01T05:55:56.165Z,79.32
2019-06-01T05:56:56.178Z,79.36
2019-06-01T05:57:56.168Z,78.50
2019-06-01T05:58:56.171Z,80.04
2019-06-01T05:59:56.156Z,79.75
2019-06-01T06:00:56.695Z,79.36
2019-06-01T06:01:56.157Z,79.27
2019-06-01T06:02:56.151Z,79.94
2019-06-01T06:03:56.144Z,80.36
2019-06-01T06:04:56.150Z,79.88
2019-06-01T06:05:56.149Z,79.21
2019-06-01T06:06:56.184Z,80.55
2019-06-01T06:07:56.141Z,79.40
2019-06-01T06:08:56.146Z,80.40
2019-06-01T06:09:56.143Z,80.21
2019-06-01T06:10:56.133Z,80.88
2019-06-01T06:11:56.142Z,79.73
2019-06-01T06:12:56.141Z,80.21
2019-06-01T06:13:56.142Z,80.02
2019-06-01T06:14:56.133Z,80.02
2019-06-01T06:15:56.139Z,79.92
2019-06-01T06:16:56.138Z,79.15
2019-06-01T06:17:56.132Z,79.82
2019-06-01T06:18:56.134Z,79.05
2019-06-01T06:19:56.133Z,80.30
2019-06-01T06:20:56.132Z,80.11
2019-06-01T06:21:56.133Z,79.86
2019-06-01T06:22:56.131Z,79.77
2019-06-01T06:23:56.135Z,79.77
2019-06-01T06:24:56.130Z,79.58
2019-06-01T06:25:56.135Z,79.38
2019-06-01T06:26:56.142Z,78.75
2019-06-01T06:27:56.124Z,78.56
2019-06-01T06:28:56.128Z,78.65
2019-06-01T06:29:56.129Z,79.13
2019-06-01T06:30:56.154Z,78.17
2019-06-01T06:31:56.134Z,77.25
2019-06-01T06:32:56.128Z,77.44
2019-06-01T06:33:57.178Z,77.44
2019-06-01T06:34:56.126Z,76.18
2019-06-01T06:35:56.126Z,76.48
2019-06-01T06:36:56.129Z,76.61
2019-06-01T06:37:56.130Z,76.03
2019-06-01T06:38:56.130Z,75.26
2019-06-01T06:39:56.138Z,75.45
2019-06-01T06:40:56.142Z,74.43
2019-06-01T06:41:56.132Z,75.07
2019-06-01T06:42:56.131Z,73.66
2019-06-01T06:43:56.723Z,73.72
2019-06-01T06:44:56.136Z,72.69
2019-06-01T06:45:56.150Z,73.37
2019-06-01T06:46:56.134Z,73.57
2019-06-01T06:47:56.164Z,71.83
2019-06-01T06:48:56.141Z,72.31
2019-06-01T06:49:56.154Z,72.89
2019-06-01T06:50:56.158Z,72.79
2019-06-01T06:51:56.155Z,71.54
2019-06-01T06:52:56.150Z,72.15
2019-06-01T06:53:56.147Z,72.54
2019-06-01T06:54:56.147Z,71.38
2019-06-01T06:55:56.181Z,71.67
2019-06-01T06:56:56.163Z,71.12
2019-06-01T06:57:56.153Z,70.06
2019-06-01T06:58:56.178Z,69.97
2019-06-01T06:59:56.167Z,69.87
2019-06-01T07:00:56.165Z,69.58
2019-06-01T07:01:56.158Z,68.91
2019-06-01T07:02:56.167Z,67.85
2019-06-01T07:04:11.356Z,67.27
2019-06-01T07:04:56.183Z,66.43
2019-06-01T07:05:56.172Z,65.75
2019-06-01T07:06:56.173Z,66.24
2019-06-01T07:07:56.180Z,65.66
2019-06-01T07:08:56.173Z,65.17
2019-06-01T07:09:56.183Z,65.27
2019-06-01T07:10:56.181Z,66.24
2019-06-01T07:11:56.180Z,66.43
2019-06-01T07:12:56.192Z,65.59
2019-06-01T07:13:56.187Z,65.11
2019-06-01T07:14:56.185Z,65.40
2019-06-01T07:15:56.194Z,65.20
2019-06-01T07:16:56.205Z,64.34
2019-06-01T07:17:56.200Z,63.56
2019-06-01T07:18:56.205Z,63.56
2019-06-01T07:19:56.213Z,63.08
2019-06-01T07:20:56.207Z,63.21
2019-06-01T07:21:56.204Z,63.21
2019-06-01T07:22:56.228Z,63.31
2019-06-01T07:23:56.223Z,62.82
2019-06-01T07:24:56.219Z,63.69
2019-06-01T07:25:56.222Z,63.40
2019-06-01T07:26:56.223Z,62.34
2019-06-01T07:27:56.224Z,62.82
2019-06-01T07:28:56.225Z,62.34
2019-06-01T07:29:56.233Z,61.69
2019-06-01T07:30:56.234Z,61.79
2019-06-01T07:31:56.235Z,61.69
2019-06-01T07:32:56.236Z,61.50
2019-06-01T07:33:56.243Z,61.21
2019-06-01T07:34:56.248Z,61.11
2019-06-01T07:35:56.251Z,62.18
2019-06-01T07:36:56.283Z,63.53
2019-06-01T07:37:56.252Z,63.14
2019-06-01T07:38:56.259Z,61.72
2019-06-01T07:39:56.259Z,60.95
2019-06-01T07:40:56.263Z,60.75
2019-06-01T07:41:56.271Z,60.95
2019-06-01T07:42:56.274Z,60.27
2019-06-01T07:43:56.280Z,60.17
2019-06-01T07:44:56.292Z,60.75
2019-06-01T07:45:56.281Z,60.66
2019-06-01T07:46:56.281Z,60.78
2019-06-01T07:47:56.292Z,59.72
2019-06-01T07:48:56.291Z,60.21
2019-06-01T07:49:56.296Z,61.27
2019-06-01T07:50:56.301Z,59.53
2019-06-01T07:51:57.029Z,59.63
2019-06-01T07:52:56.802Z,59.56
2019-06-01T07:53:56.752Z,59.75
2019-06-01T07:54:56.505Z,59.84
2019-06-01T07:55:56.470Z,58.69
2019-06-01T07:56:56.390Z,58.78
2019-06-01T07:57:56.351Z,58.14
2019-06-01T07:58:56.359Z,57.91
2019-06-01T07:59:56.343Z,57.33
2019-06-01T08:00:56.348Z,57.62
2019-06-01T08:01:56.344Z,57.62
2019-06-01T08:02:56.345Z,58.88
2019-06-01T08:03:56.345Z,59.17
2019-06-01T08:04:56.346Z,58.11
2019-06-01T08:05:56.354Z,58.01
2019-06-01T08:06:56.388Z,58.88
2019-06-01T08:07:56.365Z,58.39
2019-06-01T08:08:56.390Z,58.72
2019-06-01T08:09:56.366Z,58.14
2019-06-01T08:10:57.293Z,57.29
2019-06-01T08:11:56.385Z,57.87
2019-06-01T08:12:56.379Z,57.61
2019-06-01T08:13:56.389Z,56.83
2019-06-01T08:14:56.392Z,56.15
2019-06-01T08:15:56.400Z,56.47
2019-06-01T08:16:56.399Z,55.60
2019-06-01T08:17:56.410Z,55.60
2019-06-01T08:18:56.406Z,55.57
2019-06-01T08:19:56.416Z,55.31
2019-06-01T08:20:56.417Z,55.50
2019-06-01T08:21:56.444Z,55.79
2019-06-01T08:22:56.427Z,54.92
2019-06-01T08:23:56.431Z,55.69
2019-06-01T08:24:56.437Z,54.92
2019-06-01T08:25:56.440Z,53.78
2019-06-01T08:26:56.448Z,54.14
2019-06-01T08:27:56.451Z,53.83
2019-06-01T08:28:56.454Z,54.50
2019-06-01T08:29:56.456Z,54.99
2019-06-01T08:30:56.462Z,55.47
2019-06-01T08:31:56.468Z,55.38
2019-06-01T08:32:56.467Z,56.13
2019-06-01T08:33:56.479Z,56.13
2019-06-01T08:35:07.776Z,55.93
2019-06-01T08:35:56.482Z,56.64
2019-06-01T08:36:56.492Z,55.83
2019-06-01T08:37:56.487Z,55.54
2019-06-01T08:38:56.491Z,56.51
2019-06-01T08:39:59.177Z,55.93
2019-06-01T08:40:56.508Z,55.74
2019-06-01T08:41:56.497Z,56.32
2019-06-01T08:42:56.504Z,55.44
2019-06-01T08:43:56.509Z,56.23
2019-06-01T08:44:56.521Z,55.96
2019-06-01T08:45:56.525Z,55.96
2019-06-01T08:46:56.516Z,55.77
2019-06-01T08:47:56.521Z,55.02
2019-06-01T08:48:56.539Z,55.60
2019-06-01T08:49:56.533Z,55.41
2019-06-01T08:50:56.539Z,55.24
2019-06-01T08:51:56.587Z,54.97
2019-06-01T08:52:56.549Z,54.10
2019-06-01T08:53:56.539Z,53.91
2019-06-01T08:54:56.548Z,53.83
2019-06-01T08:55:56.553Z,53.25
2019-06-01T08:56:56.571Z,52.86
2019-06-01T08:57:56.565Z,53.35
2019-06-01T08:58:56.564Z,53.16
2019-06-01T08:59:56.568Z,52.96
2019-06-01T09:00:56.573Z,51.72
2019-06-01T09:01:56.589Z,50.75
2019-06-01T09:02:56.583Z,51.33
2019-06-01T09:03:56.587Z,51.53
2019-06-01T09:04:56.593Z,52.23
2019-06-01T09:05:56.598Z,51.65
2019-06-01T09:06:56.600Z,50.68
2019-06-01T09:07:56.607Z,50.70
2019-06-01T09:08:56.612Z,50.80
2019-06-01T09:09:56.614Z,50.90
2019-06-01T09:10:56.627Z,50.70
2019-06-01T09:11:56.631Z,50.53
2019-06-01T09:12:56.634Z,49.95
2019-06-01T09:13:56.633Z,49.95
2019-06-01T09:14:56.640Z,49.66
2019-06-01T09:15:56.653Z,48.46
2019-06-01T09:16:56.654Z,49.83
2019-06-01T09:17:56.664Z,50.21
2019-06-01T09:18:56.668Z,50.60
2019-06-01T09:19:56.676Z,48.63
2019-06-01T09:20:56.684Z,49.00
2019-06-01T09:21:56.682Z,49.78
2019-06-01T09:22:56.695Z,51.82
2019-06-01T09:23:56.701Z,50.65
2019-06-01T09:24:56.798Z,49.66
2019-06-01T09:25:56.709Z,51.92
2019-06-01T09:26:56.718Z,50.36
2019-06-01T09:27:56.722Z,50.68
2019-06-01T09:28:56.728Z,49.61
2019-06-01T09:29:56.734Z,50.38
2019-06-01T09:30:56.742Z,49.83
2019-06-01T09:31:56.745Z,49.54
2019-06-01T09:32:56.759Z,49.76
2019-06-01T09:33:56.765Z,47.88
2019-06-01T09:34:56.761Z,48.85
2019-06-01T09:35:56.767Z,47.98
2019-06-01T09:36:56.778Z,48.66
2019-06-01T09:37:56.789Z,47.76
2019-06-01T09:38:56.791Z,49.02
2019-06-01T09:39:56.920Z,49.02
2019-06-01T09:40:56.800Z,49.80
2019-06-01T09:41:56.808Z,49.51
2019-06-01T09:42:56.815Z,49.83
2019-06-01T09:43:56.821Z,49.05
2019-06-01T09:44:56.826Z,49.44
2019-06-01T09:45:56.833Z,50.02
2019-06-01T09:46:56.848Z,49.15
2019-06-01T09:47:57.062Z,49.05
2019-06-01T09:48:56.852Z,49.05
2019-06-01T09:49:56.857Z,49.92
2019-06-01T09:50:56.866Z,49.66
2019-06-01T09:51:56.877Z,48.68
2019-06-01T09:52:56.881Z,49.17
2019-06-01T09:53:56.888Z,48.68
2019-06-01T09:54:56.894Z,48.78
2019-06-01T09:55:56.894Z,48.78
2019-06-01T09:56:56.906Z,48.80
2019-06-01T09:57:56.913Z,47.85
2019-06-01T09:58:56.919Z,48.27
2019-06-01T09:59:56.926Z,46.83
2019-06-01T10:00:56.933Z,45.46
2019-06-01T10:01:56.942Z,45.56
2019-06-01T10:02:56.942Z,46.83
2019-06-01T10:03:56.947Z,46.36
2019-06-01T10:04:56.965Z,45.00
2019-06-01T10:06:01.801Z,45.87
2019-06-01T10:06:56.974Z,45.39
2019-06-01T10:07:56.989Z,45.61
2019-06-01T10:08:56.990Z,45.12
2019-06-01T10:09:56.991Z,45.12
2019-06-01T10:10:56.999Z,44.63
2019-06-01T10:11:57.007Z,45.72
2019-06-01T10:12:57.012Z,44.26
2019-06-01T10:13:57.023Z,43.48
2019-06-01T10:14:57.027Z,43.57
2019-06-01T10:15:57.040Z,43.55
2019-06-01T10:16:57.046Z,43.07
2019-06-01T10:17:57.052Z,44.34
2019-06-01T10:18:57.057Z,43.55
2019-06-01T10:19:57.069Z,44.53
2019-06-01T10:20:57.073Z,44.92
2019-06-01T10:21:57.079Z,44.74
2019-06-01T10:22:57.090Z,44.35
2019-06-01T10:23:57.102Z,43.30
2019-06-01T10:24:57.099Z,43.23
2019-06-01T10:25:57.113Z,42.35
2019-06-01T10:26:57.122Z,41.36
2019-06-01T10:27:57.120Z,42.03
2019-06-01T10:28:57.133Z,41.05
2019-06-01T10:29:57.140Z,41.15
2019-06-01T10:30:57.142Z,42.22
2019-06-01T10:31:57.155Z,43.38
2019-06-01T10:32:57.164Z,44.84
2019-06-01T10:33:57.903Z,44.84
2019-06-01T10:34:57.367Z,43.30
2019-06-01T10:35:57.297Z,43.10
2019-06-01T10:36:57.217Z,43.10
2019-06-01T10:37:57.215Z,42.61
2019-06-01T10:38:57.234Z,41.23
2019-06-01T10:39:57.277Z,42.77
2019-06-01T10:40:57.235Z,43.36
2019-06-01T10:41:57.238Z,43.36
2019-06-01T10:42:57.249Z,43.59
2019-06-01T10:43:57.262Z,42.52
2019-06-01T10:44:57.255Z,43.01
2019-06-01T10:45:57.272Z,41.83
2019-06-01T10:46:57.270Z,41.41
2019-06-01T10:47:57.276Z,43.46
2019-06-01T10:48:57.291Z,43.28
2019-06-01T10:49:57.291Z,43.48
2019-06-01T10:50:57.303Z,42.89
2019-06-01T10:51:57.312Z,42.61
2019-06-01T10:52:57.325Z,41.83
2019-06-01T10:53:57.325Z,41.66
2019-06-01T10:54:57.338Z,41.83
2019-06-01T10:55:57.342Z,43.59
2019-06-01T10:56:57.348Z,42.61
2019-06-01T10:57:57.356Z,41.25
2019-06-01T10:59:00.572Z,42.13
2019-06-01T10:59:57.376Z,42.99
2019-06-01T11:00:57.400Z,41.50
2019-06-01T11:01:57.393Z,42.05
2019-06-01T11:02:57.400Z,42.75
2019-06-01T11:03:57.405Z,43.33
2019-06-01T11:04:57.414Z,41.67
2019-06-01T11:05:57.417Z,42.85
2019-06-01T11:06:57.732Z,43.07
2019-06-01T11:07:57.432Z,43.26
2019-06-01T11:08:57.443Z,43.38
2019-06-01T11:09:57.449Z,40.86
2019-06-01T11:10:58.439Z,42.03
2019-06-01T11:11:57.472Z,41.35
2019-06-01T11:12:57.482Z,40.17
2019-06-01T11:13:57.486Z,40.45
2019-06-01T11:14:57.501Z,42.32
2019-06-01T11:15:57.501Z,39.28
2019-06-01T11:16:57.511Z,39.84
2019-06-01T11:17:57.515Z,42.07
2019-06-01T11:18:57.524Z,42.29
2019-06-01T11:19:57.541Z,41.89
2019-06-01T11:20:57.560Z,40.72
2019-06-01T11:21:57.545Z,42.38
2019-06-01T11:22:57.577Z,42.38
2019-06-01T11:23:57.572Z,41.50
2019-06-01T11:24:57.578Z,41.99
2019-06-01T11:25:57.605Z,43.26
2019-06-01T11:26:57.628Z,42.42
2019-06-01T11:27:57.602Z,41.64
2019-06-01T11:28:57.603Z,39.98
2019-06-01T11:29:57.629Z,40.29
2019-06-01T11:30:57.625Z,40.78
2019-06-01T11:31:57.656Z,40.29
2019-06-01T11:32:57.640Z,40.48
2019-06-01T11:33:57.643Z,39.82
2019-06-01T11:34:57.661Z,39.72
2019-06-01T11:35:57.662Z,39.43
2019-06-01T11:37:04.838Z,40.03
2019-06-01T11:37:57.679Z,38.47
2019-06-01T11:38:57.687Z,38.65
2019-06-01T11:39:57.695Z,39.64
2019-06-01T11:40:57.700Z,39.15
2019-06-01T11:41:57.713Z,38.18
2019-06-01T11:42:57.725Z,37.98
2019-06-01T11:43:57.728Z,38.96
2019-06-01T11:44:57.739Z,37.47
2019-06-01T11:45:57.745Z,38.14
2019-06-01T11:46:57.760Z,39.80
2019-06-01T11:47:57.762Z,39.31
2019-06-01T11:48:57.768Z,39.04
2019-06-01T11:49:57.773Z,38.14
2019-06-01T11:50:57.783Z,38.14
2019-06-01T11:51:57.794Z,39.98
2019-06-01T11:52:57.804Z,39.90
2019-06-01T11:53:57.808Z,39.20
2019-06-01T11:54:57.824Z,39.76
2019-06-01T11:55:57.831Z,39.00
2019-06-01T11:56:57.838Z,40.84
2019-06-01T11:57:57.844Z,39.78
2019-06-01T11:58:57.851Z,38.82
2019-06-01T11:59:57.860Z,39.61
2019-06-01T12:00:57.875Z,39.70
2019-06-01T12:01:57.882Z,38.55
2019-06-01T12:02:57.885Z,38.35
2019-06-01T12:03:57.897Z,39.06
2019-06-01T12:04:57.903Z,37.98
2019-06-01T12:05:57.907Z,38.57
2019-06-01T12:07:15.784Z,39.14
2019-06-01T12:07:57.936Z,39.33
2019-06-01T12:08:57.936Z,39.82
2019-06-01T12:09:57.959Z,39.70
2019-06-01T12:10:57.952Z,39.31
2019-06-01T12:11:57.961Z,40.39
2019-06-01T12:12:57.966Z,39.70
2019-06-01T12:13:57.970Z,40.48
2019-06-01T12:14:57.979Z,38.82
2019-06-01T12:15:57.984Z,39.61
2019-06-01T12:16:57.994Z,38.92
2019-06-01T12:17:58.002Z,39.43
2019-06-01T12:18:58.015Z,38.84
2019-06-01T12:19:58.022Z,38.16
2019-06-01T12:20:58.032Z,39.82
2019-06-01T12:21:58.037Z,39.14
2019-06-01T12:22:58.058Z,39.92
2019-06-01T12:23:58.053Z,40.00
2019-06-01T12:24:58.058Z,40.09
2019-06-01T12:25:58.062Z,39.92
2019-06-01T12:26:58.076Z,39.82
2019-06-01T12:27:58.087Z,39.33
2019-06-01T12:28:58.089Z,40.21
2019-06-01T12:29:58.249Z,38.37
2019-06-01T12:30:58.109Z,38.16
2019-06-01T12:31:58.246Z,39.14
2019-06-01T12:32:58.123Z,38.75
2019-06-01T12:33:58.193Z,38.55
2019-06-01T12:35:02.817Z,39.31
2019-06-01T12:35:58.219Z,40.50
2019-06-01T12:36:58.161Z,38.53
2019-06-01T12:38:06.128Z,39.90
2019-06-01T12:38:58.171Z,39.12
2019-06-01T12:39:58.176Z,39.41
2019-06-01T12:40:58.185Z,38.55
2019-06-01T12:41:58.190Z,37.45
2019-06-01T12:42:58.196Z,37.34
2019-06-01T12:43:58.200Z,38.57
2019-06-01T12:44:58.218Z,39.92
2019-06-01T12:46:07.420Z,42.16
2019-06-01T12:46:58.223Z,42.16
2019-06-01T12:47:58.755Z,42.29
2019-06-01T12:48:58.257Z,40.64
2019-06-01T12:49:58.245Z,39.76
2019-06-01T12:50:58.269Z,40.47
2019-06-01T12:51:58.272Z,39.78
2019-06-01T12:52:58.275Z,39.98
2019-06-01T12:53:58.278Z,40.43
2019-06-01T12:54:58.310Z,40.33
2019-06-01T12:55:58.292Z,40.41
2019-06-01T12:56:58.314Z,41.38
2019-06-01T12:57:58.325Z,41.95
2019-06-01T12:58:58.341Z,42.26
2019-06-01T12:59:58.336Z,42.16
2019-06-01T13:01:02.618Z,42.65
2019-06-01T13:01:58.332Z,41.38
2019-06-01T13:03:07.051Z,42.46
2019-06-01T13:03:58.358Z,42.36